Time;durP1;ratioP1;P1;durP2;ratioP2;P2;SDS_P1;SDS_P2;PMS_P1;PMS_P2;Temp;Humidity;BMP_temperature;BMP_pressure;BME280_temperature;BME280_humidity;BME280_pressure;Samples;Min_cycle;Max_cycle;Signal;HPM_P1;HPM_P2
2022/01/12 00:02:44;;;;;;;29.95;13.90;;;;;;;;;;6263598;28;20390;-80
2022/01/12 00:05:46;;;;;;;32.22;13.52;;;;;;;;;;6266832;28;20110;-81
2022/01/12 00:08:48;;;;;;;39.03;15.50;;;;;;;;;;6265121;28;20045;-81
2022/01/12 00:11:50;;;;;;;25.77;11.40;;;;;;;;;;6280138;28;20367;-81
2022/01/12 00:14:53;;;;;;;20.27;10.07;;;;;;;;;;6263719;28;20516;-81
2022/01/12 00:17:54;;;;;;;29.80;12.33;;;;;;;;;;6266857;28;20044;-81
2022/01/12 00:20:56;;;;;;;24.45;12.30;;;;;;;;;;6270936;28;20479;-81
2022/01/12 00:23:58;;;;;;;30.55;12.05;;;;;;;;;;6283888;28;20037;-81
2022/01/12 00:33:40;;;;;;;25.75;11.88;;;;;;;;;;6244822;28;20037;-81
2022/01/12 00:36:43;;;;;;;30.88;14.15;;;;;;;;;;6244742;28;20064;-81
2022/01/12 00:39:45;;;;;;;28.70;12.15;;;;;;;;;;6258595;28;20084;-81
2022/01/12 00:42:47;;;;;;;26.87;12.07;;;;;;;;;;6286897;28;20049;-81
2022/01/12 00:45:49;;;;;;;29.35;11.88;;;;;;;;;;6270814;28;20045;-80
2022/01/12 00:48:53;;;;;;;24.30;10.45;;;;;;;;;;6281267;28;20549;-81
2022/01/12 00:51:55;;;;;;;29.98;13.85;;;;;;;;;;6269068;28;20068;-81
2022/01/12 00:54:56;;;;;;;27.00;12.07;;;;;;;;;;6270339;28;20127;-81
2022/01/12 00:57:58;;;;;;;24.13;11.10;;;;;;;;;;6285482;28;20126;-81
2022/01/12 01:01:01;;;;;;;22.58;11.02;;;;;;;;;;6269327;28;20091;-81
2022/01/12 01:04:03;;;;;;;27.15;11.60;;;;;;;;;;6267285;28;20044;-80
2022/01/12 01:07:05;;;;;;;24.65;11.13;;;;;;;;;;6268906;28;20051;-81
2022/01/12 01:10:12;;;;;;;22.75;11.18;;;;;;;;;;6251506;28;20525;-80
2022/01/12 01:13:18;;;;;;;22.58;10.80;;;;;;;;;;6244193;28;20072;-81
2022/01/12 01:16:26;;;;;;;25.45;11.77;;;;;;;;;;6269045;28;20038;-81
2022/01/12 01:26:12;;;;;;;21.83;10.85;;;;;;;;;;6251406;28;20052;-80
2022/01/12 01:29:14;;;;;;;22.00;10.68;;;;;;;;;;6282173;28;20051;-81
2022/01/12 01:32:16;;;;;;;28.15;11.73;;;;;;;;;;6282522;28;20051;-81
2022/01/12 01:35:19;;;;;;;24.00;12.05;;;;;;;;;;6262193;28;20064;-81
2022/01/12 01:38:21;;;;;;;27.00;12.73;;;;;;;;;;6268361;28;20120;-81
2022/01/12 01:41:23;;;;;;;27.55;11.95;;;;;;;;;;6261834;28;20034;-82
2022/01/12 01:54:08;;;;;;;20.38;8.77;;;;;;;;;;6266346;28;20049;-81
2022/01/12 01:57:10;;;;;;;20.88;10.68;;;;;;;;;;6249374;28;20048;-82
2022/01/12 02:00:19;;;;;;;20.75;10.35;;;;;;;;;;6250690;28;20083;-82
2022/01/12 02:03:27;;;;;;;21.15;10.30;;;;;;;;;;6237618;28;20473;-81
2022/01/12 02:06:31;;;;;;;24.52;11.50;;;;;;;;;;6258938;28;20128;-81
2022/01/12 02:09:34;;;;;;;22.40;11.75;;;;;;;;;;6236511;28;20071;-81
2022/01/12 02:12:59;;;;;;;27.25;12.30;;;;;;;;;;6273065;28;20045;-82
2022/01/12 02:16:00;;;;;;;24.63;11.93;;;;;;;;;;6266935;28;20037;-81
2022/01/12 02:41:56;;;;;;;20.40;10.10;;;;;;;;;;6264507;28;20045;-81
2022/01/12 02:55:22;;;;;;;23.55;9.50;;;;;;;;;;6118384;28;20564;-83
2022/01/12 02:58:24;;;;;;;19.60;8.85;;;;;;;;;;6123688;28;20043;-81
2022/01/12 03:04:35;;;;;;;21.63;10.63;;;;;;;;;;6264079;28;20064;-82
2022/01/12 03:07:40;;;;;;;20.90;10.48;;;;;;;;;;6265233;28;20037;-81
2022/01/12 03:10:42;;;;;;;22.67;10.52;;;;;;;;;;6258938;28;20053;-82
2022/01/12 03:13:44;;;;;;;24.75;10.85;;;;;;;;;;6279890;28;20041;-82
2022/01/12 03:16:47;;;;;;;24.52;10.73;;;;;;;;;;6254111;28;20053;-82
2022/01/12 03:19:55;;;;;;;23.92;10.00;;;;;;;;;;6254413;28;20037;-81
2022/01/12 03:22:56;;;;;;;20.45;9.35;;;;;;;;;;6257219;28;20065;-82
2022/01/12 03:25:58;;;;;;;21.20;9.70;;;;;;;;;;6257157;28;20175;-81
2022/01/12 03:29:01;;;;;;;20.88;9.75;;;;;;;;;;6249039;28;20041;-82
2022/01/12 03:32:03;;;;;;;21.77;10.33;;;;;;;;;;6274968;28;20045;-82
2022/01/12 03:35:22;;;;;;;20.88;9.98;;;;;;;;;;6281478;28;20792;-79
2022/01/12 03:38:24;;;;;;;21.00;11.05;;;;;;;;;;6280722;28;20054;-79
2022/01/12 03:41:31;;;;;;;20.42;9.65;;;;;;;;;;6226602;28;20057;-81
2022/01/12 03:44:32;;;;;;;23.23;9.13;;;;;;;;;;6240694;28;20144;-81
2022/01/12 03:47:34;;;;;;;24.58;9.65;;;;;;;;;;6258480;28;20047;-81
2022/01/12 03:50:36;;;;;;;21.70;10.23;;;;;;;;;;6279765;28;20127;-82
2022/01/12 03:53:37;;;;;;;22.60;10.10;;;;;;;;;;6270485;28;20048;-82
2022/01/12 03:56:39;;;;;;;23.58;10.05;;;;;;;;;;6256925;28;20045;-82
2022/01/12 03:59:41;;;;;;;26.85;12.10;;;;;;;;;;6270999;28;20052;-81
2022/01/12 04:02:43;;;;;;;50.42;17.48;;;;;;;;;;6251695;28;20061;-81
2022/01/12 04:08:57;;;;;;;33.72;13.93;;;;;;;;;;6276506;28;20491;-81
2022/01/12 04:11:59;;;;;;;42.67;16.08;;;;;;;;;;6269826;28;20037;-81
2022/01/12 04:15:01;;;;;;;34.20;14.85;;;;;;;;;;6252009;28;20049;-81
2022/01/12 04:18:03;;;;;;;28.65;13.10;;;;;;;;;;6257751;28;20128;-80
2022/01/12 04:21:08;;;;;;;34.75;13.70;;;;;;;;;;6261765;28;20068;-80
2022/01/12 04:24:10;;;;;;;34.35;14.77;;;;;;;;;;6268616;28;20040;-81
2022/01/12 04:27:11;;;;;;;38.35;15.10;;;;;;;;;;6263354;28;20037;-81
2022/01/12 04:30:13;;;;;;;35.78;15.18;;;;;;;;;;6260048;28;20449;-81
2022/01/12 04:33:16;;;;;;;36.03;14.88;;;;;;;;;;6267353;28;20094;-81
2022/01/12 04:36:18;;;;;;;37.20;14.20;;;;;;;;;;6256150;28;20045;-82
2022/01/12 04:39:20;;;;;;;31.50;14.77;;;;;;;;;;6267335;28;20041;-81
2022/01/12 04:42:21;;;;;;;37.53;14.77;;;;;;;;;;6279895;28;20394;-81
2022/01/12 04:51:29;;;;;;;29.47;13.40;;;;;;;;;;6267772;28;20040;-81
2022/01/12 04:54:31;;;;;;;34.65;14.65;;;;;;;;;;6267908;28;20526;-81
2022/01/12 04:57:33;;;;;;;34.80;14.05;;;;;;;;;;6285172;28;20069;-81
2022/01/12 05:00:37;;;;;;;33.40;14.55;;;;;;;;;;6285148;28;20114;-81
2022/01/12 05:13:28;;;;;;;29.75;13.70;;;;;;;;;;6268565;28;20125;-81
2022/01/12 05:16:30;;;;;;;32.53;12.85;;;;;;;;;;6267564;28;20051;-82
2022/01/12 05:19:33;;;;;;;27.60;12.30;;;;;;;;;;6268491;28;20057;-80
2022/01/12 05:22:35;;;;;;;29.17;12.18;;;;;;;;;;6267699;28;20079;-81
2022/01/12 05:25:36;;;;;;;31.40;12.30;;;;;;;;;;6266964;28;20041;-81
2022/01/12 05:28:39;;;;;;;26.10;12.63;;;;;;;;;;6267823;28;20048;-80
2022/01/12 05:31:41;;;;;;;27.23;11.80;;;;;;;;;;6263706;28;20128;-81
2022/01/12 05:34:43;;;;;;;32.55;12.27;;;;;;;;;;6267710;28;20840;-81
2022/01/12 05:37:46;;;;;;;35.95;14.95;;;;;;;;;;6266972;28;20131;-80
2022/01/12 05:40:55;;;;;;;33.50;13.10;;;;;;;;;;6266037;28;20143;-82
2022/01/12 05:43:58;;;;;;;26.60;12.13;;;;;;;;;;6267219;28;20040;-81
2022/01/12 05:47:01;;;;;;;27.85;12.73;;;;;;;;;;6236513;28;20057;-81
2022/01/12 05:50:03;;;;;;;27.48;12.07;;;;;;;;;;6241478;28;20045;-81
2022/01/12 05:53:05;;;;;;;24.42;12.18;;;;;;;;;;6244050;28;20418;-81
2022/01/12 05:56:07;;;;;;;24.92;12.35;;;;;;;;;;6249453;28;20082;-81
2022/01/12 05:59:09;;;;;;;25.73;12.18;;;;;;;;;;6249969;28;20041;-81
2022/01/12 06:02:11;;;;;;;25.35;11.50;;;;;;;;;;6262374;28;20053;-81
2022/01/12 06:05:14;;;;;;;24.40;11.95;;;;;;;;;;6264661;28;20202;-81
2022/01/12 06:08:16;;;;;;;21.98;11.88;;;;;;;;;;6263997;28;20048;-81
2022/01/12 06:11:18;;;;;;;29.60;13.13;;;;;;;;;;6279086;28;20048;-81
2022/01/12 06:14:22;;;;;;;44.42;16.90;;;;;;;;;;6278966;28;20040;-81
2022/01/12 06:17:23;;;;;;;39.72;16.48;;;;;;;;;;6262377;28;20045;-81
2022/01/12 06:20:25;;;;;;;32.10;13.95;;;;;;;;;;6249033;28;20045;-81
2022/01/12 06:23:46;;;;;;;30.50;13.98;;;;;;;;;;6267417;28;20048;-81
2022/01/12 06:26:48;;;;;;;33.95;14.93;;;;;;;;;;6281404;28;20124;-82
2022/01/12 06:33:12;;;;;;;36.17;15.73;;;;;;;;;;6215334;28;20048;-81
2022/01/12 06:36:17;;;;;;;30.73;14.75;;;;;;;;;;6266171;28;20128;-81
2022/01/12 06:39:20;;;;;;;31.52;14.02;;;;;;;;;;6264978;28;20045;-82
2022/01/12 06:42:25;;;;;;;30.90;13.15;;;;;;;;;;6265641;28;20049;-80
2022/01/12 06:45:27;;;;;;;25.00;11.23;;;;;;;;;;6262473;28;20075;-81
2022/01/12 06:48:29;;;;;;;20.73;10.57;;;;;;;;;;6261679;28;20041;-80
2022/01/12 06:51:30;;;;;;;26.98;10.43;;;;;;;;;;6263469;28;20124;-81
2022/01/12 06:54:34;;;;;;;24.05;10.75;;;;;;;;;;6251012;28;20045;-83
2022/01/12 06:57:36;;;;;;;18.38;9.75;;;;;;;;;;6286524;28;20051;-82
2022/01/12 07:00:39;;;;;;;26.65;11.77;;;;;;;;;;6283658;28;20037;-81
2022/01/12 07:03:42;;;;;;;;;;;;;;;;;;6281198;28;20049;-82
2022/01/12 07:06:44;;;;;;;24.27;11.77;;;;;;;;;;6253729;28;19984;-82
2022/01/12 07:09:51;;;;;;;41.15;18.42;;;;;;;;;;6264941;28;20565;-82
2022/01/12 07:12:55;;;;;;;38.45;18.00;;;;;;;;;;6283818;28;20052;-82
2022/01/12 07:15:57;;;;;;;59.80;24.63;;;;;;;;;;6281254;28;20041;-83
2022/01/12 07:19:00;;;;;;;42.78;18.95;;;;;;;;;;6265304;28;20048;-81
2022/01/12 07:22:04;;;;;;;26.60;12.77;;;;;;;;;;6265846;28;20045;-81
2022/01/12 07:25:06;;;;;;;26.83;11.65;;;;;;;;;;6286891;28;20048;-81
2022/01/12 07:28:07;;;;;;;21.05;10.27;;;;;;;;;;6276818;28;20152;-81
2022/01/12 07:31:09;;;;;;;26.00;12.82;;;;;;;;;;6278242;28;20064;-81
2022/01/12 07:34:13;;;;;;;29.95;14.00;;;;;;;;;;6276689;28;20045;-81
2022/01/12 07:37:14;;;;;;;38.15;17.25;;;;;;;;;;6277560;28;20128;-81
2022/01/12 07:40:19;;;;;;;32.63;14.27;;;;;;;;;;6274303;28;20055;-81
2022/01/12 07:43:20;;;;;;;29.50;13.20;;;;;;;;;;6276637;28;20065;-82
2022/01/12 07:46:22;;;;;;;20.65;11.20;;;;;;;;;;6273884;28;20047;-82
2022/01/12 07:49:24;;;;;;;26.00;11.27;;;;;;;;;;6292284;28;20474;-82
2022/01/12 07:52:27;;;;;;;21.25;10.27;;;;;;;;;;6292065;28;20116;-80
2022/01/12 07:55:32;;;;;;;26.25;12.57;;;;;;;;;;6273989;28;20112;-82
2022/01/12 07:58:34;;;;;;;21.73;9.98;;;;;;;;;;6273753;28;20061;-84
2022/01/12 08:01:35;;;;;;;24.23;12.07;;;;;;;;;;6289713;28;20056;-83
2022/01/12 08:04:38;;;;;;;33.85;14.65;;;;;;;;;;6273414;28;20048;-82
2022/01/12 08:07:40;;;;;;;24.75;11.93;;;;;;;;;;6274421;28;20098;-83
2022/01/12 08:10:42;;;;;;;23.38;11.43;;;;;;;;;;6285706;28;20045;-83
2022/01/12 08:13:45;;;;;;;20.05;9.95;;;;;;;;;;6268111;28;20076;-83
2022/01/12 08:16:47;;;;;;;25.80;11.43;;;;;;;;;;6270013;28;20405;-82
2022/01/12 08:19:50;;;;;;;21.58;11.25;;;;;;;;;;6266630;28;20053;-83
2022/01/12 08:22:53;;;;;;;22.25;11.18;;;;;;;;;;6265336;28;21929;-82
2022/01/12 08:25:54;;;;;;;28.30;11.80;;;;;;;;;;6269841;28;20057;-81
2022/01/12 08:28:56;;;;;;;22.27;11.77;;;;;;;;;;6273988;28;20048;-82
2022/01/12 08:31:58;;;;;;;28.23;13.50;;;;;;;;;;6268310;28;20065;-83
2022/01/12 08:34:59;;;;;;;34.38;16.70;;;;;;;;;;6281922;28;20047;-83
2022/01/12 08:38:01;;;;;;;25.05;12.95;;;;;;;;;;6279607;28;20045;-83
2022/01/12 08:41:03;;;;;;;23.20;11.15;;;;;;;;;;6270047;28;20045;-83
2022/01/12 08:44:07;;;;;;;26.63;11.80;;;;;;;;;;6270374;28;20045;-83
2022/01/12 08:47:09;;;;;;;22.02;11.35;;;;;;;;;;6269377;28;20055;-82
2022/01/12 08:50:12;;;;;;;26.13;10.95;;;;;;;;;;6274683;28;20459;-83
2022/01/12 08:53:15;;;;;;;23.33;11.43;;;;;;;;;;6263849;28;20051;-82
2022/01/12 08:56:16;;;;;;;18.77;10.27;;;;;;;;;;6261581;28;20099;-83
2022/01/12 08:59:18;;;;;;;16.73;8.57;;;;;;;;;;6269414;28;20065;-82
2022/01/12 09:02:20;;;;;;;19.55;9.70;;;;;;;;;;6270668;28;20084;-82
2022/01/12 09:05:21;;;;;;;19.00;8.82;;;;;;;;;;6269822;28;20116;-81
2022/01/12 09:08:23;;;;;;;17.17;8.95;;;;;;;;;;6260312;28;20051;-83
2022/01/12 09:11:25;;;;;;;27.60;11.70;;;;;;;;;;6270833;28;20131;-84
2022/01/12 09:14:26;;;;;;;23.77;13.15;;;;;;;;;;6268983;28;20048;-83
2022/01/12 09:17:28;;;;;;;26.33;12.25;;;;;;;;;;6266921;28;20043;-83
2022/01/12 09:20:34;;;;;;;23.85;13.07;;;;;;;;;;6277640;28;20041;-82
2022/01/12 09:23:36;;;;;;;30.33;14.20;;;;;;;;;;6279507;28;20044;-82
2022/01/12 09:26:38;;;;;;;38.03;16.53;;;;;;;;;;6265720;28;20452;-83
2022/01/12 09:29:42;;;;;;;39.63;15.18;;;;;;;;;;6270035;28;20200;-81
2022/01/12 09:32:45;;;;;;;24.90;12.07;;;;;;;;;;6268829;28;20049;-79
2022/01/12 09:35:53;;;;;;;20.23;10.55;;;;;;;;;;6272294;28;20064;-82
2022/01/12 09:38:55;;;;;;;21.35;11.25;;;;;;;;;;6271473;28;20083;-81
2022/01/12 09:41:57;;;;;;;23.15;10.70;;;;;;;;;;6275291;28;20071;-82
2022/01/12 09:45:00;;;;;;;22.02;11.52;;;;;;;;;;6272886;28;20063;-82
2022/01/12 09:48:02;;;;;;;19.90;10.90;;;;;;;;;;6270962;28;20041;-82
2022/01/12 09:51:07;;;;;;;18.65;10.48;;;;;;;;;;6273091;28;20103;-81
2022/01/12 09:54:11;;;;;;;19.88;9.88;;;;;;;;;;6270328;28;20044;-82
2022/01/12 09:57:13;;;;;;;20.73;10.95;;;;;;;;;;6256521;28;20060;-81
2022/01/12 10:00:22;;;;;;;20.35;11.52;;;;;;;;;;6294539;28;20044;-83
2022/01/12 10:03:25;;;;;;;20.55;10.13;;;;;;;;;;6271768;28;20164;-82
2022/01/12 10:06:26;;;;;;;21.50;10.65;;;;;;;;;;6270204;28;20110;-82
2022/01/12 10:09:43;;;;;;;18.90;10.27;;;;;;;;;;6271890;28;20094;-81
2022/01/12 10:12:53;;;;;;;28.73;12.88;;;;;;;;;;6259940;28;20486;-79
2022/01/12 10:15:55;;;;;;;44.58;17.42;;;;;;;;;;6246050;28;20047;-82
2022/01/12 10:19:00;;;;;;;36.17;15.15;;;;;;;;;;6248779;28;20138;-82
2022/01/12 10:22:05;;;;;;;20.92;10.52;;;;;;;;;;6280591;28;20048;-82
2022/01/12 10:25:19;;;;;;;22.55;10.05;;;;;;;;;;6274610;28;20056;-81
2022/01/12 10:28:23;;;;;;;21.48;10.15;;;;;;;;;;6269010;28;20128;-80
2022/01/12 10:31:26;;;;;;;18.70;10.00;;;;;;;;;;6260668;28;20071;-81
2022/01/12 10:34:38;;;;;;;17.98;9.50;;;;;;;;;;6270377;28;20461;-82
2022/01/12 10:37:40;;;;;;;19.95;10.82;;;;;;;;;;6270394;28;20041;-81
2022/01/12 10:40:52;;;;;;;23.70;11.48;;;;;;;;;;6271276;28;20067;-82
2022/01/12 10:43:53;;;;;;;19.70;10.48;;;;;;;;;;6270404;28;20045;-81
2022/01/12 10:47:26;;;;;;;21.40;10.05;;;;;;;;;;6284658;28;20047;-84
2022/01/12 10:50:28;;;;;;;27.15;12.45;;;;;;;;;;6249807;28;20116;-81
2022/01/12 10:53:33;;;;;;;23.58;13.60;;;;;;;;;;6269596;28;20051;-84
2022/01/12 10:56:40;;;;;;;23.02;11.20;;;;;;;;;;6283346;28;20049;-81
2022/01/12 10:59:42;;;;;;;21.35;11.75;;;;;;;;;;6282595;28;20053;-81
2022/01/12 11:02:48;;;;;;;24.17;10.85;;;;;;;;;;6267674;28;20417;-83
2022/01/12 11:05:53;;;;;;;16.88;10.15;;;;;;;;;;6269862;28;20044;-81
2022/01/12 11:08:56;;;;;;;19.45;10.95;;;;;;;;;;6272292;28;20045;-81
2022/01/12 11:11:58;;;;;;;22.47;10.90;;;;;;;;;;6270382;28;20090;-81
2022/01/12 11:14:59;;;;;;;22.10;11.32;;;;;;;;;;6269798;28;20443;-81
2022/01/12 11:18:01;;;;;;;21.50;11.75;;;;;;;;;;6271300;28;20154;-81
2022/01/12 11:21:18;;;;;;;23.70;11.45;;;;;;;;;;6285115;28;20045;-81
2022/01/12 11:24:20;;;;;;;23.48;11.98;;;;;;;;;;6271379;28;20102;-80
2022/01/12 11:27:22;;;;;;;23.30;11.55;;;;;;;;;;6272570;28;20568;-81
2022/01/12 11:30:24;;;;;;;21.40;10.98;;;;;;;;;;6268199;28;20076;-82
2022/01/12 11:33:29;;;;;;;30.27;12.82;;;;;;;;;;6269676;28;20059;-81
2022/01/12 11:36:38;;;;;;;22.05;12.38;;;;;;;;;;6272573;28;20047;-81
2022/01/12 11:39:40;;;;;;;21.73;9.77;;;;;;;;;;6272499;28;20056;-82
2022/01/12 11:42:42;;;;;;;22.95;9.98;;;;;;;;;;6272044;28;20069;-81
2022/01/12 11:45:44;;;;;;;25.42;11.57;;;;;;;;;;6269926;28;20100;-82
2022/01/12 11:48:51;;;;;;;28.95;13.45;;;;;;;;;;6288116;28;20045;-80
2022/01/12 11:51:53;;;;;;;27.85;13.25;;;;;;;;;;6285528;28;20118;-81
2022/01/12 11:55:24;;;;;;;21.27;11.02;;;;;;;;;;6270957;28;20065;-83
2022/01/12 11:58:26;;;;;;;21.42;11.25;;;;;;;;;;6259185;28;20462;-80
2022/01/12 12:01:44;;;;;;;186.93;66.55;;;;;;;;;;6241059;28;20112;-78
2022/01/12 12:04:55;;;;;;;53.08;24.55;;;;;;;;;;6241497;28;20077;-80
2022/01/12 12:08:02;;;;;;;33.05;14.32;;;;;;;;;;6259284;28;20507;-80
2022/01/12 12:11:09;;;;;;;38.42;19.48;;;;;;;;;;6265787;28;20037;-80
2022/01/12 12:14:12;;;;;;;224.32;98.38;;;;;;;;;;6267396;28;20052;-80
2022/01/12 12:17:16;;;;;;;156.48;57.33;;;;;;;;;;6263222;28;20179;-81
2022/01/12 12:20:20;;;;;;;49.22;20.67;;;;;;;;;;6273243;28;20566;-83
2022/01/12 12:23:30;;;;;;;78.15;33.33;;;;;;;;;;6270431;28;20059;-84
2022/01/12 12:26:32;;;;;;;23.02;12.80;;;;;;;;;;6270230;28;20187;-82
2022/01/12 12:29:34;;;;;;;23.35;11.60;;;;;;;;;;6269594;28;20112;-84
2022/01/12 12:32:38;;;;;;;22.15;10.57;;;;;;;;;;6272957;28;20051;-84
2022/01/12 12:35:42;;;;;;;26.33;13.38;;;;;;;;;;6268964;28;20073;-85
2022/01/12 12:38:44;;;;;;;44.08;22.55;;;;;;;;;;6269286;28;20726;-84
2022/01/12 12:41:46;;;;;;;34.67;16.13;;;;;;;;;;6269464;28;20501;-84
2022/01/12 12:44:53;;;;;;;31.43;15.47;;;;;;;;;;6270445;28;20136;-83
2022/01/12 12:48:03;;;;;;;32.80;14.80;;;;;;;;;;6272107;28;20435;-84
2022/01/12 12:51:14;;;;;;;22.77;11.65;;;;;;;;;;6273220;28;20053;-85
2022/01/12 12:54:16;;;;;;;23.92;12.13;;;;;;;;;;6272193;28;20100;-83
2022/01/12 12:57:49;;;;;;;22.33;11.23;;;;;;;;;;6283650;28;20275;-84
2022/01/12 13:00:51;;;;;;;27.02;13.75;;;;;;;;;;6266769;28;20076;-83
2022/01/12 13:03:57;;;;;;;24.35;12.07;;;;;;;;;;6274292;28;20040;-85
2022/01/12 13:07:10;;;;;;;22.50;11.32;;;;;;;;;;6273201;28;20051;-83
2022/01/12 13:10:21;;;;;;;25.00;12.67;;;;;;;;;;6287508;28;20069;-85
2022/01/12 13:13:22;;;;;;;33.53;15.55;;;;;;;;;;6286765;28;20120;-83
2022/01/12 13:16:26;;;;;;;27.20;12.65;;;;;;;;;;6286269;28;20044;-84
2022/01/12 13:23:04;;;;;;;29.42;13.90;;;;;;;;;;6270070;28;20105;-83
2022/01/12 13:26:08;;;;;;;20.80;10.80;;;;;;;;;;6271289;28;20124;-83
2022/01/12 13:29:13;;;;;;;18.27;10.15;;;;;;;;;;6272516;28;20069;-84
2022/01/12 13:32:18;;;;;;;40.55;20.67;;;;;;;;;;6254325;28;20041;-82
2022/01/12 13:35:35;;;;;;;29.92;14.60;;;;;;;;;;6287362;28;20140;-83
2022/01/12 13:38:38;;;;;;;42.83;19.63;;;;;;;;;;6269185;28;20049;-82
2022/01/12 13:41:46;;;;;;;47.10;21.92;;;;;;;;;;6269636;28;20032;-84
2022/01/12 13:45:02;;;;;;;42.95;20.63;;;;;;;;;;6285728;28;20061;-82
2022/01/12 13:48:13;;;;;;;33.28;14.77;;;;;;;;;;6277186;28;20045;-87
2022/01/12 13:51:23;;;;;;;32.33;15.48;;;;;;;;;;6271831;28;20096;-84
2022/01/12 13:54:37;;;;;;;28.55;14.13;;;;;;;;;;6269228;28;20037;-85
2022/01/12 13:57:39;;;;;;;;;;;;;;;;;;6286746;28;20064;-89
2022/01/12 14:00:40;;;;;;;34.63;15.18;;;;;;;;;;6269159;28;20003;-84
2022/01/12 14:03:50;;;;;;;33.80;14.98;;;;;;;;;;6285762;28;20041;-83
2022/01/12 14:06:53;;;;;;;31.58;13.68;;;;;;;;;;6269331;28;20124;-87
2022/01/12 14:09:57;;;;;;;28.48;12.10;;;;;;;;;;6253426;28;20041;-85
2022/01/12 14:12:59;;;;;;;20.27;10.57;;;;;;;;;;6285188;28;20112;-85
2022/01/12 14:16:19;;;;;;;29.35;13.10;;;;;;;;;;6285045;28;20075;-84
2022/01/12 14:19:21;;;;;;;24.00;14.15;;;;;;;;;;6269269;28;20490;-84
2022/01/12 14:22:24;;;;;;;32.22;13.70;;;;;;;;;;6269807;28;20045;-87
2022/01/12 14:25:51;;;;;;;22.52;12.57;;;;;;;;;;6270747;28;20041;-84
2022/01/12 14:28:54;;;;;;;24.63;12.85;;;;;;;;;;6271631;28;20041;-87
2022/01/12 14:31:55;;;;;;;20.60;10.93;;;;;;;;;;6284985;28;20049;-85
2022/01/12 14:34:57;;;;;;;21.80;11.40;;;;;;;;;;6283477;28;20164;-90
2022/01/12 14:37:59;;;;;;;19.92;10.90;;;;;;;;;;6267630;28;20345;-85
2022/01/12 14:41:10;;;;;;;20.73;11.00;;;;;;;;;;6265966;28;20043;-84
2022/01/12 14:44:12;;;;;;;22.38;11.85;;;;;;;;;;6237220;28;20450;-83
2022/01/12 14:47:13;;;;;;;26.67;12.05;;;;;;;;;;6247843;28;20044;-84
2022/01/12 14:50:15;;;;;;;24.58;12.25;;;;;;;;;;6260200;28;20103;-84
2022/01/12 14:53:21;;;;;;;18.17;10.00;;;;;;;;;;6261843;28;20152;-81
2022/01/12 14:56:22;;;;;;;17.88;9.27;;;;;;;;;;6277470;28;20100;-82
2022/01/12 14:59:25;;;;;;;21.20;8.27;;;;;;;;;;6267188;28;20057;-82
2022/01/12 15:02:27;;;;;;;14.40;7.05;;;;;;;;;;6264845;28;20037;-86
2022/01/12 15:05:30;;;;;;;17.92;7.28;;;;;;;;;;6250494;28;20054;-82
2022/01/12 15:08:32;;;;;;;14.85;7.28;;;;;;;;;;6265840;28;20130;-84
2022/01/12 15:11:39;;;;;;;14.73;7.63;;;;;;;;;;6260542;28;20563;-83
2022/01/12 15:17:44;;;;;;;26.20;11.15;;;;;;;;;;6253248;28;20052;-84
2022/01/12 15:20:46;;;;;;;26.83;13.38;;;;;;;;;;6272179;28;20053;-84
2022/01/12 15:23:47;;;;;;;23.15;11.00;;;;;;;;;;6261741;28;20120;-83
2022/01/12 15:26:49;;;;;;;18.23;10.57;;;;;;;;;;6237104;28;20156;-83
2022/01/12 15:29:51;;;;;;;19.75;9.52;;;;;;;;;;6239750;28;20132;-85
2022/01/12 15:32:53;;;;;;;14.13;8.40;;;;;;;;;;6243230;28;20190;-86
2022/01/12 15:35:55;;;;;;;20.00;9.03;;;;;;;;;;6265260;28;20048;-85
2022/01/12 15:38:57;;;;;;;20.33;10.25;;;;;;;;;;6260018;28;20494;-84
2022/01/12 15:41:59;;;;;;;18.40;10.10;;;;;;;;;;6264010;28;20037;-83
2022/01/12 15:45:02;;;;;;;16.42;8.75;;;;;;;;;;6248819;28;20102;-86
2022/01/12 15:48:04;;;;;;;25.48;12.35;;;;;;;;;;6254889;28;20409;-84
2022/01/12 15:51:08;;;;;;;19.77;10.70;;;;;;;;;;6274249;28;20502;-84
2022/01/12 15:54:10;;;;;;;17.42;9.15;;;;;;;;;;6279516;28;20078;-84
2022/01/12 15:57:14;;;;;;;16.63;8.43;;;;;;;;;;6253840;28;20049;-85
2022/01/12 16:00:20;;;;;;;18.92;9.38;;;;;;;;;;6244361;28;20248;-84
2022/01/12 16:03:24;;;;;;;18.48;10.23;;;;;;;;;;6269770;28;20690;-84
2022/01/12 16:06:29;;;;;;;32.60;16.77;;;;;;;;;;6271067;28;20044;-85
2022/01/12 16:09:30;;;;;;;35.97;17.35;;;;;;;;;;6258875;28;20048;-83
2022/01/12 16:12:32;;;;;;;35.85;19.63;;;;;;;;;;6279053;28;20048;-84
2022/01/12 16:15:54;;;;;;;60.90;33.95;;;;;;;;;;6276660;28;20041;-84
2022/01/12 16:18:55;;;;;;;41.15;23.05;;;;;;;;;;6287682;28;20413;-85
2022/01/12 16:21:59;;;;;;;38.28;20.75;;;;;;;;;;6271891;28;20422;-85
2022/01/12 16:25:02;;;;;;;96.15;40.15;;;;;;;;;;6270969;28;20128;-84
2022/01/12 16:28:04;;;;;;;46.00;25.15;;;;;;;;;;6271612;28;20040;-85
2022/01/12 16:31:21;;;;;;;46.78;24.52;;;;;;;;;;6270085;28;20045;-84
2022/01/12 16:34:23;;;;;;;40.97;22.52;;;;;;;;;;6271801;28;20190;-83
2022/01/12 16:37:27;;;;;;;29.98;16.35;;;;;;;;;;6272242;28;20187;-84
2022/01/12 16:40:28;;;;;;;;;;;;;;;;;;6271697;28;20130;-85
2022/01/12 16:43:31;;;;;;;30.15;16.35;;;;;;;;;;6270743;28;20376;-83
2022/01/12 16:46:34;;;;;;;25.20;11.88;;;;;;;;;;6270788;28;20071;-82
2022/01/12 16:49:35;;;;;;;25.45;12.70;;;;;;;;;;6269118;28;20100;-83
2022/01/12 16:52:38;;;;;;;28.73;14.57;;;;;;;;;;6269750;28;20037;-83
2022/01/12 16:55:40;;;;;;;23.92;10.95;;;;;;;;;;6270458;28;20104;-86
2022/01/12 16:58:44;;;;;;;31.48;14.40;;;;;;;;;;6266728;28;20132;-85
2022/01/12 17:01:45;;;;;;;26.40;11.13;;;;;;;;;;6257294;28;20122;-82
2022/01/12 17:04:47;;;;;;;24.60;10.68;;;;;;;;;;6243098;28;20047;-79
2022/01/12 17:07:49;;;;;;;31.00;12.73;;;;;;;;;;6272957;28;20108;-82
2022/01/12 17:10:50;;;;;;;29.13;11.65;;;;;;;;;;6288827;28;20049;-86
2022/01/12 17:13:52;;;;;;;30.30;13.70;;;;;;;;;;6266533;28;20729;-82
2022/01/12 17:17:07;;;;;;;27.63;13.38;;;;;;;;;;6266666;28;20124;-82
2022/01/12 17:20:09;;;;;;;27.60;12.32;;;;;;;;;;6265991;28;20073;-84
2022/01/12 17:23:13;;;;;;;24.95;11.63;;;;;;;;;;6267522;28;20095;-82
2022/01/12 17:26:55;;;;;;;24.75;11.95;;;;;;;;;;6248512;28;20124;-82
2022/01/12 17:29:57;;;;;;;27.65;12.15;;;;;;;;;;6255741;28;20482;-81
2022/01/12 17:32:58;;;;;;;35.88;13.30;;;;;;;;;;6288322;28;20189;-82
2022/01/12 17:36:20;;;;;;;27.48;11.85;;;;;;;;;;6292217;28;20064;-82
2022/01/12 17:39:26;;;;;;;22.90;10.23;;;;;;;;;;6274552;28;23064;-81
2022/01/12 17:42:27;;;;;;;25.77;11.98;;;;;;;;;;6270307;28;20047;-81
2022/01/12 17:45:29;;;;;;;30.40;11.30;;;;;;;;;;6265994;28;20049;-82
2022/01/12 17:48:36;;;;;;;32.08;14.25;;;;;;;;;;6266872;28;20051;-82
2022/01/12 17:51:39;;;;;;;32.13;16.35;;;;;;;;;;6283066;28;20064;-82
2022/01/12 17:54:41;;;;;;;29.58;14.90;;;;;;;;;;6266614;28;20581;-81
2022/01/12 17:57:43;;;;;;;26.63;13.98;;;;;;;;;;6265225;28;20065;-81
2022/01/12 18:00:45;;;;;;;34.13;14.25;;;;;;;;;;6263849;28;20218;-81
2022/01/12 18:03:46;;;;;;;27.85;12.82;;;;;;;;;;6265525;28;20055;-81
2022/01/12 18:06:48;;;;;;;26.70;13.15;;;;;;;;;;6266220;28;20151;-81
2022/01/12 18:09:50;;;;;;;33.97;17.70;;;;;;;;;;6279721;28;20183;-83
2022/01/12 18:12:51;;;;;;;29.35;12.57;;;;;;;;;;6266637;28;20041;-81
2022/01/12 18:15:56;;;;;;;26.77;13.25;;;;;;;;;;6265103;28;20447;-82
2022/01/12 18:19:09;;;;;;;25.55;12.27;;;;;;;;;;6268158;28;20104;-82
2022/01/12 18:22:14;;;;;;;22.67;10.13;;;;;;;;;;6280652;28;20044;-83
2022/01/12 18:25:16;;;;;;;28.45;11.35;;;;;;;;;;6265397;28;20045;-82
2022/01/12 18:28:19;;;;;;;24.30;10.67;;;;;;;;;;6266591;28;20037;-83
2022/01/12 18:31:21;;;;;;;28.85;11.63;;;;;;;;;;6263520;28;20451;-81
2022/01/12 18:34:23;;;;;;;26.40;11.43;;;;;;;;;;6279505;28;20041;-82
2022/01/12 18:37:27;;;;;;;23.42;10.30;;;;;;;;;;6278249;28;20051;-80
2022/01/12 18:40:36;;;;;;;32.75;13.68;;;;;;;;;;6259077;28;20041;-79
2022/01/12 18:43:38;;;;;;;31.98;13.43;;;;;;;;;;6261294;28;20073;-81
2022/01/12 18:46:40;;;;;;;27.15;12.45;;;;;;;;;;6271014;28;20148;-81
2022/01/12 18:49:42;;;;;;;27.15;12.25;;;;;;;;;;6263654;28;20056;-79
2022/01/12 18:52:45;;;;;;;25.25;12.57;;;;;;;;;;6262853;28;20178;-81
2022/01/12 18:55:47;;;;;;;29.25;13.52;;;;;;;;;;6257429;28;20048;-81
2022/01/12 18:58:48;;;;;;;24.70;12.13;;;;;;;;;;6267509;28;20196;-80
2022/01/12 19:01:50;;;;;;;22.85;11.73;;;;;;;;;;6256498;28;20593;-80
2022/01/12 19:04:52;;;;;;;22.80;11.52;;;;;;;;;;6261515;28;20056;-80
2022/01/12 19:07:54;;;;;;;19.77;9.77;;;;;;;;;;6244593;28;20171;-81
2022/01/12 19:10:56;;;;;;;42.30;18.33;;;;;;;;;;6234652;28;20771;-79
2022/01/12 19:14:07;;;;;;;23.73;10.68;;;;;;;;;;6256132;28;20508;-82
2022/01/12 19:17:09;;;;;;;23.92;9.45;;;;;;;;;;6260128;28;20250;-81
2022/01/12 19:20:11;;;;;;;18.85;8.85;;;;;;;;;;6260974;28;20048;-80
2022/01/12 19:23:13;;;;;;;21.88;10.60;;;;;;;;;;6260630;28;20078;-81